Startpagina
METAR-TAF:

METAR-TAF

Vliegvelden :

Dublin Airport

Dublin, Ierland

breedte: 53-26N, lengte: 006-15W, hoogte: 68 m

Actueel weer

Dit bericht is 28 minuten geleden gemaakt, om 20:00 UTC
Wind 6 kt uit het oosten
Temperatuur 12°C
Vochtigheid 71%
Druk 999 hPa
Zicht 10 km of meer
Weinig wolken op 2200 ft
Gebroken wolken op 10000 ft

METAR: EIDW 222000Z 09006KT 9999 FEW022 BKN100 12/07 Q0999 NOSIG

Tijdstip: 21:28 (20:28 UTC)

Verwachting

Dit bericht is 3 uur en het 28 minuten geleden gemaakt, om 17:00 UTC
Verwachting geldig van 22 om 18 UTC tot 23 om 18 UTC
Wind 8 kt uit het oosten
Zicht 10 km of meer
Weinig wolken op 2000 ft
Verspreide wolken op 4000 ft
Wijzigt naar
van 22 om 20 UTC tot 22 om 23 UTC
Wind 7 kt uit het zuidzuidoosten
Wijzigt naar
van 23 om 02 UTC tot 23 om 04 UTC
Wind 3 kt uit variabele richting
Wijzigt naar
van 23 om 08 UTC tot 23 om 10 UTC
Wind 8 kt uit het oosten

TAF: EIDW 221700Z 2218/2318 10008KT 9999 FEW020 SCT040 BECMG 2220/2223 15007KT BECMG 2302/2304 VRB03KT BECMG 2308/2310 08008KT

Waarnemingen en weersverwachtingen van meer dan 4000 vliegvelden (METAR en TAF).

De beschikbare stations zijn de gele en rode punten op de kaart.

Ga met uw muis naar het station om de naam te zien.

Klik dan om waarnemingen en weersverwachtingen te zien.

kaart wijzigen: klik op de groene knoppen met een zwart kruis om in te zoomen, op de groene knop met een streepje om uit te zoomen of op de groene pijlen voor aangrenzende kaarten.


METAR-TAF: